createdAt,value
2022-11-06T00:01:24.789Z,2.67
2022-11-06T00:03:55.128Z,3.13
2022-11-06T00:06:40.556Z,3.45
2022-11-06T00:09:10.624Z,2.78
2022-11-06T00:11:37.459Z,2.63
2022-11-06T00:14:04.739Z,3.25
2022-11-06T00:16:31.709Z,2.88
2022-11-06T00:19:02.408Z,2.85
2022-11-06T00:21:30.601Z,2.92
2022-11-06T00:23:59.869Z,2.40
2022-11-06T00:26:29.989Z,2.92
2022-11-06T00:28:57.122Z,3.10
2022-11-06T00:31:27.393Z,2.47
2022-11-06T00:33:55.707Z,2.35
2022-11-06T00:36:24.169Z,2.55
2022-11-06T00:38:55.423Z,3.17
2022-11-06T00:41:23.497Z,2.92
2022-11-06T00:43:52.516Z,2.80
2022-11-06T00:46:19.947Z,2.90
2022-11-06T00:48:47.062Z,2.95
2022-11-06T00:51:17.454Z,2.88
2022-11-06T00:53:45.140Z,2.95
2022-11-06T00:56:17.624Z,2.88
2022-11-06T00:58:45.403Z,2.80
2022-11-06T01:01:15.067Z,2.83
2022-11-06T01:03:43.818Z,2.22
2022-11-06T01:06:13.791Z,2.78
2022-11-06T01:08:41.332Z,2.72
2022-11-06T01:11:26.206Z,3.00
2022-11-06T01:13:55.806Z,2.72
2022-11-06T01:16:24.062Z,2.90
2022-11-06T01:18:51.352Z,2.70
2022-11-06T01:21:23.823Z,3.10
2022-11-06T01:26:38.441Z,2.90
2022-11-06T01:29:08.810Z,3.05
2022-11-06T01:31:35.972Z,3.45
2022-11-06T01:34:03.677Z,2.80
2022-11-06T01:36:30.723Z,3.00
2022-11-06T01:38:59.859Z,2.78
2022-11-06T01:41:47.957Z,3.00
2022-11-06T01:44:14.707Z,2.78
2022-11-06T01:46:41.526Z,3.13
2022-11-06T01:49:16.661Z,2.83
2022-11-06T01:52:06.892Z,2.70
2022-11-06T01:54:36.547Z,2.75
2022-11-06T01:57:04.622Z,2.60
2022-11-06T01:59:34.082Z,3.03
2022-11-06T02:02:01.159Z,2.60
2022-11-06T02:04:32.718Z,3.30
2022-11-06T02:07:01.149Z,2.80
2022-11-06T02:09:30.516Z,2.95
2022-11-06T02:12:11.238Z,2.70
2022-11-06T02:14:50.891Z,2.53
2022-11-06T02:18:18.566Z,2.60
2022-11-06T02:21:18.698Z,2.70
2022-11-06T02:24:22.859Z,2.40
2022-11-06T02:27:18.247Z,2.60
2022-11-06T02:29:51.534Z,2.80
2022-11-06T02:32:27.776Z,2.92
2022-11-06T02:34:55.754Z,3.03
2022-11-06T02:37:29.455Z,2.80
2022-11-06T02:40:00.307Z,3.30
2022-11-06T02:42:29.666Z,2.38
2022-11-06T02:44:57.947Z,2.53
2022-11-06T02:47:28.559Z,2.40
2022-11-06T02:50:04.689Z,2.83
2022-11-06T02:52:45.382Z,3.00
2022-11-06T02:55:26.717Z,2.80
2022-11-06T02:57:59.947Z,2.65
2022-11-06T03:00:28.022Z,2.90
2022-11-06T03:03:23.712Z,2.60
2022-11-06T03:06:04.476Z,2.45
2022-11-06T03:08:38.638Z,3.20
2022-11-06T03:11:21.206Z,2.97
2022-11-06T03:13:51.990Z,3.22
2022-11-06T03:16:48.272Z,2.95
2022-11-06T03:19:18.127Z,2.85
2022-11-06T03:22:06.508Z,3.03
2022-11-06T03:24:43.021Z,3.13
2022-11-06T03:27:22.380Z,3.10
2022-11-06T03:29:55.452Z,3.88
2022-11-06T03:32:45.508Z,3.58
2022-11-06T03:35:37.131Z,3.15
2022-11-06T03:38:14.077Z,3.20
2022-11-06T03:40:47.061Z,3.30
2022-11-06T03:43:17.634Z,3.33
2022-11-06T03:45:46.750Z,3.35
2022-11-06T03:48:37.974Z,3.05
2022-11-06T03:51:19.537Z,3.70
2022-11-06T03:53:50.082Z,3.65
2022-11-06T03:56:26.504Z,3.25
2022-11-06T03:58:55.825Z,3.42
2022-11-06T04:01:29.097Z,3.38
2022-11-06T04:04:05.647Z,3.40
2022-11-06T04:06:57.897Z,3.90
2022-11-06T04:09:47.808Z,4.00
2022-11-06T04:12:38.022Z,3.50
2022-11-06T04:15:06.570Z,4.43
2022-11-06T04:17:33.775Z,4.28
2022-11-06T04:20:03.380Z,4.13
2022-11-06T04:22:47.801Z,4.00
2022-11-06T04:25:42.286Z,3.78
2022-11-06T04:28:24.279Z,4.05
2022-11-06T04:31:18.742Z,3.80
2022-11-06T04:34:04.406Z,4.35
2022-11-06T04:36:43.581Z,3.80
2022-11-06T04:39:25.768Z,4.03
2022-11-06T04:42:04.916Z,3.45
2022-11-06T04:44:40.011Z,3.78
2022-11-06T04:47:10.028Z,4.15
2022-11-06T04:49:40.649Z,3.60
2022-11-06T04:52:11.418Z,3.67
2022-11-06T04:54:38.727Z,3.50
2022-11-06T04:57:05.497Z,3.33
2022-11-06T04:59:36.891Z,3.58
2022-11-06T05:02:05.307Z,3.22
2022-11-06T05:04:32.666Z,3.78
2022-11-06T05:06:59.698Z,5.00
2022-11-06T05:09:26.492Z,3.55
2022-11-06T05:11:53.339Z,3.47
2022-11-06T05:14:20.312Z,3.45
2022-11-06T05:16:47.124Z,4.07
2022-11-06T05:19:13.933Z,3.42
2022-11-06T05:21:59.435Z,4.43
2022-11-06T05:24:26.222Z,4.40
2022-11-06T05:26:58.959Z,3.60
2022-11-06T05:29:26.587Z,3.22
2022-11-06T05:31:53.704Z,3.25
2022-11-06T05:34:21.369Z,3.00
2022-11-06T05:36:48.338Z,4.05
2022-11-06T05:39:15.133Z,3.42
2022-11-06T05:41:41.901Z,3.60
2022-11-06T05:44:08.812Z,4.00
2022-11-06T05:46:48.296Z,3.63
2022-11-06T05:49:15.871Z,4.10
2022-11-06T05:51:42.673Z,3.72
2022-11-06T05:54:09.475Z,3.60
2022-11-06T05:56:36.301Z,3.17
2022-11-06T05:59:03.184Z,3.42
2022-11-06T06:01:30.528Z,3.13
2022-11-06T06:03:57.512Z,3.40
2022-11-06T06:06:24.392Z,3.35
2022-11-06T06:08:51.147Z,3.35
2022-11-06T06:11:17.928Z,3.10
2022-11-06T06:13:44.766Z,3.85
2022-11-06T06:16:11.520Z,3.45
2022-11-06T06:18:38.379Z,3.05
2022-11-06T06:21:05.343Z,3.40
2022-11-06T06:23:32.114Z,3.45
2022-11-06T06:25:58.987Z,3.72
2022-11-06T06:28:25.814Z,3.53
2022-11-06T06:30:57.200Z,3.45
2022-11-06T06:33:27.010Z,3.53
2022-11-06T06:35:53.804Z,3.25
2022-11-06T06:38:20.630Z,3.78
2022-11-06T06:40:47.539Z,3.38
2022-11-06T06:43:14.368Z,3.60
2022-11-06T06:45:41.143Z,3.50
2022-11-06T06:48:08.229Z,3.45
2022-11-06T06:50:35.167Z,3.72
2022-11-06T06:53:02.152Z,3.40
2022-11-06T06:55:29.413Z,3.13
2022-11-06T06:58:00.806Z,3.42
2022-11-06T07:00:28.849Z,2.97
2022-11-06T07:02:58.513Z,3.38
2022-11-06T07:05:25.480Z,4.32
2022-11-06T07:07:52.271Z,3.00
2022-11-06T07:10:19.179Z,3.47
2022-11-06T07:12:45.952Z,3.33
2022-11-06T07:15:13.092Z,3.60
2022-11-06T07:17:39.891Z,3.83
2022-11-06T07:20:08.026Z,3.58
2022-11-06T07:22:37.339Z,3.38
2022-11-06T07:25:05.556Z,3.97
2022-11-06T07:27:32.451Z,3.45
2022-11-06T07:30:00.595Z,3.83
2022-11-06T07:32:27.822Z,3.30
2022-11-06T07:34:55.259Z,4.07
2022-11-06T07:37:22.253Z,3.50
2022-11-06T07:39:49.081Z,3.80
2022-11-06T07:42:15.854Z,4.63
2022-11-06T07:44:42.629Z,3.97
2022-11-06T07:47:09.391Z,3.55
2022-11-06T07:49:36.152Z,4.45
2022-11-06T07:52:04.614Z,3.90
2022-11-06T07:54:31.492Z,3.53
2022-11-06T07:56:58.245Z,4.00
2022-11-06T07:59:25.028Z,3.80
2022-11-06T08:01:52.382Z,4.15
2022-11-06T08:04:19.209Z,3.72
2022-11-06T08:06:46.044Z,4.18
2022-11-06T08:09:12.890Z,4.35
2022-11-06T08:11:39.737Z,3.97
2022-11-06T08:14:06.567Z,4.28
2022-11-06T08:16:33.483Z,3.92
2022-11-06T08:19:00.328Z,3.35
2022-11-06T08:21:27.379Z,4.18
2022-11-06T08:23:54.192Z,4.13
2022-11-06T08:26:20.966Z,3.80
2022-11-06T08:28:47.684Z,4.03
2022-11-06T08:31:14.471Z,3.70
2022-11-06T08:33:41.565Z,3.70
2022-11-06T08:36:09.526Z,3.92
2022-11-06T08:38:36.837Z,3.92
2022-11-06T08:41:08.724Z,4.35
2022-11-06T08:43:36.464Z,3.55
2022-11-06T08:46:08.126Z,4.10
2022-11-06T08:48:35.630Z,4.03
2022-11-06T08:51:05.009Z,3.80
2022-11-06T08:53:32.002Z,4.05
2022-11-06T08:55:59.001Z,4.03
2022-11-06T08:58:25.821Z,3.92
2022-11-06T09:00:52.620Z,3.70
2022-11-06T09:03:19.643Z,4.18
2022-11-06T09:05:46.780Z,3.40
2022-11-06T09:08:14.612Z,4.38
2022-11-06T09:10:42.787Z,4.13
2022-11-06T09:13:10.527Z,4.00
2022-11-06T09:15:38.324Z,3.60
2022-11-06T09:18:05.528Z,3.63
2022-11-06T09:20:32.274Z,4.07
2022-11-06T09:23:04.352Z,3.85
2022-11-06T09:25:31.692Z,3.35
2022-11-06T09:27:59.980Z,3.67
2022-11-06T09:30:29.544Z,3.85
2022-11-06T09:32:59.303Z,3.67
2022-11-06T09:35:27.862Z,3.88
2022-11-06T09:37:54.627Z,4.18
2022-11-06T09:40:34.443Z,3.60
2022-11-06T09:43:04.160Z,3.85
2022-11-06T09:45:33.568Z,3.33
2022-11-06T09:48:09.625Z,3.42
2022-11-06T09:50:41.811Z,3.72
2022-11-06T09:53:20.477Z,3.45
2022-11-06T09:55:49.508Z,3.40
2022-11-06T09:58:23.369Z,3.78
2022-11-06T10:00:54.877Z,3.42
2022-11-06T10:04:00.521Z,3.53
2022-11-06T10:06:28.729Z,3.80
2022-11-06T10:09:02.436Z,3.38
2022-11-06T10:11:35.799Z,3.70
2022-11-06T10:14:11.474Z,3.70
2022-11-06T10:16:47.296Z,3.50
2022-11-06T10:19:38.530Z,3.25
2022-11-06T10:22:08.133Z,3.22
2022-11-06T10:24:51.353Z,3.50
2022-11-06T10:27:25.943Z,3.53
2022-11-06T10:30:04.896Z,3.30
2022-11-06T10:32:49.716Z,3.08
2022-11-06T10:35:43.926Z,3.13
2022-11-06T10:38:17.302Z,3.22
2022-11-06T10:40:46.449Z,3.45
2022-11-06T10:43:13.166Z,3.08
2022-11-06T10:45:44.446Z,3.90
2022-11-06T10:48:32.502Z,3.38
2022-11-06T10:51:22.640Z,3.17
2022-11-06T10:54:10.550Z,3.15
2022-11-06T10:57:01.652Z,3.05
2022-11-06T10:59:28.749Z,2.75
2022-11-06T11:01:55.918Z,2.63
2022-11-06T11:04:22.849Z,3.08
2022-11-06T11:06:49.629Z,2.50
2022-11-06T11:09:27.399Z,2.63
2022-11-06T11:11:54.165Z,2.85
2022-11-06T11:14:26.638Z,2.65
2022-11-06T11:19:41.206Z,2.22
2022-11-06T11:22:17.000Z,2.80
2022-11-06T11:25:25.647Z,2.70
2022-11-06T11:27:52.422Z,3.03
2022-11-06T11:30:26.542Z,2.83
2022-11-06T11:32:54.261Z,2.47
2022-11-06T11:35:28.684Z,3.03
2022-11-06T11:38:16.866Z,2.60
2022-11-06T11:40:43.895Z,2.80
2022-11-06T11:43:19.751Z,2.50
2022-11-06T11:46:05.025Z,2.20
2022-11-06T11:48:56.252Z,2.75
2022-11-06T11:51:44.937Z,2.20
2022-11-06T11:54:11.658Z,2.28
2022-11-06T11:57:08.801Z,2.50
2022-11-06T11:59:48.245Z,2.70
2022-11-06T12:02:23.596Z,2.50
2022-11-06T12:05:36.689Z,2.20
2022-11-06T12:08:04.783Z,2.20
2022-11-06T12:10:42.851Z,2.53
2022-11-06T12:13:23.821Z,2.30
2022-11-06T12:16:09.747Z,1.83
2022-11-06T12:18:45.315Z,2.13
2022-11-06T12:21:14.598Z,2.10
2022-11-06T12:24:01.221Z,2.42
2022-11-06T12:26:49.843Z,2.00
2022-11-06T12:29:22.085Z,2.05
2022-11-06T12:32:23.768Z,1.95
2022-11-06T12:34:59.748Z,2.10
2022-11-06T12:37:32.368Z,2.25
2022-11-06T12:40:25.186Z,2.05
2022-11-06T12:43:20.148Z,1.73
2022-11-06T12:45:56.104Z,2.10
2022-11-06T12:48:22.964Z,2.00
2022-11-06T12:51:25.298Z,1.70
2022-11-06T12:54:21.525Z,2.13
2022-11-06T12:57:17.460Z,2.00
2022-11-06T12:59:49.283Z,2.10
2022-11-06T13:02:43.421Z,2.08
2022-11-06T13:05:22.131Z,1.88
2022-11-06T13:08:03.983Z,2.00
2022-11-06T13:10:54.557Z,1.67
2022-11-06T13:13:27.268Z,2.10
2022-11-06T13:16:26.860Z,2.20
2022-11-06T13:19:00.800Z,2.00
2022-11-06T13:22:05.876Z,1.73
2022-11-06T13:24:40.100Z,2.50
2022-11-06T13:27:27.431Z,1.80
2022-11-06T13:30:01.637Z,2.20
2022-11-06T13:32:32.531Z,2.00
2022-11-06T13:35:00.598Z,1.80
2022-11-06T13:37:43.023Z,2.92
2022-11-06T13:40:25.342Z,4.40
2022-11-06T13:42:55.872Z,4.05
2022-11-06T13:45:24.109Z,4.43
2022-11-06T13:48:17.933Z,4.72
2022-11-06T13:51:29.915Z,4.18
2022-11-06T13:54:04.721Z,4.45
2022-11-06T13:57:02.746Z,3.25
2022-11-06T14:00:03.600Z,3.80
2022-11-06T14:02:59.402Z,3.80
2022-11-06T14:05:48.049Z,3.60
2022-11-06T14:08:35.096Z,2.60
2022-11-06T14:11:11.602Z,2.63
2022-11-06T14:13:39.068Z,3.42
2022-11-06T14:16:14.908Z,2.17
2022-11-06T14:18:42.560Z,4.22
2022-11-06T14:21:28.559Z,3.88
2022-11-06T14:24:05.809Z,3.92
2022-11-06T14:26:45.039Z,2.20
2022-11-06T14:29:27.315Z,2.13
2022-11-06T14:32:24.486Z,2.25
2022-11-06T14:34:51.297Z,2.13
2022-11-06T14:37:18.083Z,2.00
2022-11-06T14:39:57.002Z,1.75
2022-11-06T14:42:27.053Z,1.88
2022-11-06T14:45:08.939Z,2.22
2022-11-06T14:47:53.087Z,5.85
2022-11-06T14:50:19.883Z,5.68
2022-11-06T14:52:55.710Z,6.07
2022-11-06T14:55:43.911Z,4.10
2022-11-06T14:58:22.999Z,6.22
2022-11-06T15:00:49.744Z,3.08
2022-11-06T15:03:28.251Z,2.00
2022-11-06T15:06:01.709Z,2.10
2022-11-06T15:08:46.912Z,2.05
2022-11-06T15:11:29.041Z,2.15
2022-11-06T15:14:16.043Z,1.35
2022-11-06T15:17:10.318Z,1.55
2022-11-06T15:19:44.310Z,1.52
2022-11-06T15:22:40.442Z,1.40
2022-11-06T15:25:16.359Z,1.70
2022-11-06T15:28:13.882Z,2.17
2022-11-06T15:30:47.290Z,2.42
2022-11-06T15:33:25.300Z,1.92
2022-11-06T15:35:54.019Z,1.80
2022-11-06T15:38:25.191Z,1.77
2022-11-06T15:40:54.615Z,1.70
2022-11-06T15:43:26.663Z,1.55
2022-11-06T15:46:24.197Z,1.55
2022-11-06T15:49:14.519Z,1.83
2022-11-06T15:51:49.337Z,1.85
2022-11-06T15:54:36.059Z,1.98
2022-11-06T15:57:24.410Z,2.92
2022-11-06T15:59:51.362Z,2.67
2022-11-06T16:02:20.723Z,2.53
2022-11-06T16:04:49.126Z,2.70
2022-11-06T16:07:18.091Z,2.50
2022-11-06T16:09:46.140Z,2.55
2022-11-06T16:12:15.709Z,2.33
2022-11-06T16:14:46.697Z,2.00
2022-11-06T16:17:23.888Z,1.95
2022-11-06T16:19:52.577Z,1.42
2022-11-06T16:22:27.453Z,1.48
2022-11-06T16:25:00.566Z,1.65
2022-11-06T16:27:27.881Z,1.50
2022-11-06T16:30:01.083Z,1.60
2022-11-06T16:32:30.970Z,1.60
2022-11-06T16:35:00.057Z,1.58
2022-11-06T16:37:29.622Z,1.98
2022-11-06T16:39:59.450Z,2.33
2022-11-06T16:42:35.884Z,2.00
2022-11-06T16:45:17.786Z,9.25
2022-11-06T16:48:07.539Z,5.17
2022-11-06T16:50:53.124Z,2.20
2022-11-06T16:53:21.698Z,3.08
2022-11-06T16:56:06.614Z,1.80
2022-11-06T16:58:51.772Z,1.95
2022-11-06T17:01:20.798Z,1.98
2022-11-06T17:03:54.205Z,2.08
2022-11-06T17:06:32.338Z,2.05
2022-11-06T17:09:05.068Z,1.70
2022-11-06T17:11:34.920Z,2.13
2022-11-06T17:14:11.069Z,1.88
2022-11-06T17:16:47.161Z,2.20
2022-11-06T17:19:13.985Z,1.80
2022-11-06T17:21:40.783Z,1.90
2022-11-06T17:24:35.499Z,2.20
2022-11-06T17:26:55.515Z,2.08
2022-11-06T17:29:22.610Z,2.25
2022-11-06T17:31:51.903Z,2.30
2022-11-06T17:34:18.736Z,2.85
2022-11-06T17:36:45.507Z,2.25
2022-11-06T17:39:12.790Z,2.35
2022-11-06T17:41:39.561Z,2.63
2022-11-06T17:44:09.203Z,3.20
2022-11-06T17:46:38.795Z,3.25
2022-11-06T17:49:05.897Z,2.40
2022-11-06T17:51:53.091Z,2.60
2022-11-06T17:54:22.262Z,1.70
2022-11-06T17:56:53.628Z,2.05
2022-11-06T17:59:21.123Z,2.00
2022-11-06T18:01:50.365Z,2.15
2022-11-06T18:04:18.436Z,3.50
2022-11-06T18:06:46.816Z,2.22
2022-11-06T18:09:14.842Z,2.28
2022-11-06T18:11:42.930Z,2.17
2022-11-06T18:14:09.949Z,2.20
2022-11-06T18:16:43.703Z,2.40
2022-11-06T18:19:14.763Z,2.33
2022-11-06T18:21:41.598Z,2.22
2022-11-06T18:24:08.629Z,2.00
2022-11-06T18:26:37.306Z,2.25
2022-11-06T18:29:05.757Z,1.80
2022-11-06T18:31:33.181Z,1.95
2022-11-06T18:34:00.184Z,2.13
2022-11-06T18:36:27.116Z,2.38
2022-11-06T18:38:53.911Z,2.60
2022-11-06T18:41:22.041Z,2.67
2022-11-06T18:43:49.517Z,2.30
2022-11-06T18:46:18.816Z,2.08
2022-11-06T18:48:45.885Z,1.90
2022-11-06T18:51:32.643Z,2.17
2022-11-06T18:54:04.627Z,2.25
2022-11-06T18:56:32.217Z,2.30
2022-11-06T18:58:59.609Z,2.50
2022-11-06T19:01:26.573Z,1.95
2022-11-06T19:03:53.654Z,2.22
2022-11-06T19:06:21.382Z,2.22
2022-11-06T19:08:49.026Z,2.20
2022-11-06T19:11:18.087Z,2.60
2022-11-06T19:13:48.406Z,2.33
2022-11-06T19:16:18.601Z,5.65
2022-11-06T19:18:45.650Z,3.92
2022-11-06T19:21:13.404Z,3.65
2022-11-06T19:23:42.345Z,3.88
2022-11-06T19:26:30.495Z,2.58
2022-11-06T19:28:58.293Z,1.90
2022-11-06T19:31:29.232Z,1.95
2022-11-06T19:33:57.069Z,2.15
2022-11-06T19:36:25.219Z,1.85
2022-11-06T19:38:52.484Z,1.70
2022-11-06T19:41:19.606Z,1.88
2022-11-06T19:43:46.498Z,2.10
2022-11-06T19:46:13.281Z,2.10
2022-11-06T19:48:41.057Z,2.05
2022-11-06T19:51:13.425Z,1.83
2022-11-06T19:53:41.311Z,2.13
2022-11-06T19:56:10.220Z,1.77
2022-11-06T19:58:37.017Z,1.90
2022-11-06T20:01:13.106Z,2.10
2022-11-06T20:03:40.447Z,2.25
2022-11-06T20:06:08.282Z,2.00
2022-11-06T20:08:38.562Z,1.80
2022-11-06T20:11:07.507Z,2.08
2022-11-06T20:13:36.437Z,1.98
2022-11-06T20:16:09.317Z,1.92
2022-11-06T20:18:37.362Z,1.95
2022-11-06T20:21:07.505Z,2.47
2022-11-06T20:23:34.837Z,2.13
2022-11-06T20:26:01.984Z,2.30
2022-11-06T20:28:29.187Z,2.60
2022-11-06T20:30:56.594Z,2.15
2022-11-06T20:33:23.706Z,2.45
2022-11-06T20:35:50.575Z,2.25
2022-11-06T20:38:17.629Z,2.38
2022-11-06T20:40:45.228Z,2.70
2022-11-06T20:43:12.333Z,2.80
2022-11-06T20:45:39.923Z,2.92
2022-11-06T20:48:07.949Z,2.53
2022-11-06T20:50:34.984Z,2.50
2022-11-06T20:53:02.112Z,2.92
2022-11-06T20:55:29.149Z,3.03
2022-11-06T20:57:55.911Z,2.72
2022-11-06T21:00:22.847Z,3.42
2022-11-06T21:02:49.838Z,2.42
2022-11-06T21:05:16.807Z,3.00
2022-11-06T21:07:43.616Z,2.97
2022-11-06T21:10:12.015Z,2.58
2022-11-06T21:12:38.896Z,2.75
2022-11-06T21:15:06.315Z,2.65
2022-11-06T21:17:33.162Z,3.50
2022-11-06T21:20:00.088Z,3.22
2022-11-06T21:22:26.922Z,2.88
2022-11-06T21:24:53.762Z,3.08
2022-11-06T21:27:20.660Z,3.20
2022-11-06T21:29:47.495Z,3.20
2022-11-06T21:32:14.279Z,3.00
2022-11-06T21:34:41.040Z,3.53
2022-11-06T21:37:07.889Z,3.03
2022-11-06T21:39:36.463Z,3.08
2022-11-06T21:42:04.978Z,3.72
2022-11-06T21:44:32.131Z,3.25
2022-11-06T21:46:58.938Z,3.35
2022-11-06T21:49:25.728Z,3.40
2022-11-06T21:51:52.631Z,3.28
2022-11-06T21:54:38.178Z,3.40
2022-11-06T21:57:05.067Z,3.28
2022-11-06T21:59:31.876Z,3.05
2022-11-06T22:01:59.059Z,3.40
2022-11-06T22:04:26.019Z,3.28
2022-11-06T22:06:52.878Z,3.75
2022-11-06T22:09:24.872Z,3.20
2022-11-06T22:11:52.833Z,3.50
2022-11-06T22:14:19.699Z,3.67
2022-11-06T22:16:47.891Z,3.22
2022-11-06T22:19:16.090Z,3.55
2022-11-06T22:21:43.427Z,3.80
2022-11-06T22:24:12.450Z,3.60
2022-11-06T22:26:39.865Z,3.35
2022-11-06T22:29:10.417Z,3.65
2022-11-06T22:31:37.279Z,3.70
2022-11-06T22:34:04.068Z,3.55
2022-11-06T22:36:31.145Z,3.58
2022-11-06T22:39:00.660Z,3.67
2022-11-06T22:41:27.518Z,4.10
2022-11-06T22:43:58.802Z,4.05
2022-11-06T22:46:26.369Z,4.00
2022-11-06T22:48:53.804Z,3.58
2022-11-06T22:51:23.493Z,4.03
2022-11-06T22:53:50.534Z,4.00
2022-11-06T22:56:18.469Z,3.80
2022-11-06T22:58:45.730Z,3.65
2022-11-06T23:01:12.735Z,3.35
2022-11-06T23:03:40.065Z,3.20
2022-11-06T23:06:09.319Z,3.65
2022-11-06T23:08:44.234Z,3.75
2022-11-06T23:11:14.444Z,3.35
2022-11-06T23:13:41.275Z,3.50
2022-11-06T23:16:39.545Z,3.90
2022-11-06T23:19:06.999Z,3.67
2022-11-06T23:21:33.993Z,3.15
2022-11-06T23:24:01.037Z,3.58
2022-11-06T23:26:27.845Z,3.67
2022-11-06T23:28:56.097Z,3.50
2022-11-06T23:31:23.554Z,3.17
2022-11-06T23:33:50.409Z,3.13
2022-11-06T23:36:18.416Z,3.20
2022-11-06T23:38:45.337Z,3.15
2022-11-06T23:41:33.152Z,3.28
2022-11-06T23:44:01.083Z,3.35
2022-11-06T23:46:30.139Z,3.38
2022-11-06T23:48:57.560Z,3.10
2022-11-06T23:51:25.542Z,2.97
2022-11-06T23:53:53.255Z,3.22
2022-11-06T23:56:20.106Z,3.47
2022-11-06T23:58:46.946Z,3.38
